createdAt,value
2019-04-01T00:01:52.789Z,2.05
2019-04-01T00:04:22.078Z,2.10
2019-04-01T00:06:51.397Z,2.77
2019-04-01T00:09:21.529Z,1.80
2019-04-01T00:11:51.761Z,2.08
2019-04-01T00:14:21.877Z,2.40
2019-04-01T00:16:51.918Z,2.52
2019-04-01T00:19:22.190Z,3.00
2019-04-01T00:21:52.458Z,1.87
2019-04-01T00:24:22.396Z,2.12
2019-04-01T00:26:52.573Z,2.22
2019-04-01T00:29:22.815Z,2.08
2019-04-01T00:31:52.840Z,2.87
2019-04-01T00:34:23.105Z,2.00
2019-04-01T00:36:53.351Z,2.10
2019-04-01T00:39:23.402Z,2.65
2019-04-01T00:42:00.859Z,2.22
2019-04-01T00:44:30.176Z,2.40
2019-04-01T00:46:59.491Z,1.90
2019-04-01T00:49:28.810Z,2.87
2019-04-01T00:51:58.115Z,1.87
2019-04-01T00:54:27.443Z,2.15
2019-04-01T00:56:57.096Z,2.20
2019-04-01T00:59:26.438Z,2.00
2019-04-01T01:01:55.810Z,2.10
2019-04-01T01:04:25.151Z,1.75
2019-04-01T01:06:54.985Z,2.08
2019-04-01T01:09:28.790Z,2.30
2019-04-01T01:11:58.129Z,2.22
2019-04-01T01:14:27.567Z,2.27
2019-04-01T01:16:56.873Z,2.27
2019-04-01T01:19:26.160Z,2.42
2019-04-01T01:21:55.805Z,1.95
2019-04-01T01:24:26.033Z,2.20
2019-04-01T01:26:56.165Z,2.35
2019-04-01T01:29:26.358Z,2.22
2019-04-01T01:31:56.370Z,2.40
2019-04-01T01:34:26.599Z,2.33
2019-04-01T01:36:56.866Z,2.70
2019-04-01T01:39:26.862Z,2.15
2019-04-01T01:41:56.925Z,2.20
2019-04-01T01:44:27.198Z,2.12
2019-04-01T01:46:57.273Z,1.90
2019-04-01T01:49:27.500Z,2.58
2019-04-01T01:51:57.569Z,2.33
2019-04-01T01:54:27.803Z,1.95
2019-04-01T01:56:58.107Z,1.80
2019-04-01T01:59:28.073Z,1.80
2019-04-01T02:01:58.070Z,2.55
2019-04-01T02:04:28.271Z,2.33
2019-04-01T02:06:58.345Z,2.50
2019-04-01T02:09:28.610Z,2.35
2019-04-01T02:11:58.682Z,2.42
2019-04-01T02:14:28.907Z,2.42
2019-04-01T02:16:59.003Z,2.35
2019-04-01T02:19:29.113Z,1.72
2019-04-01T02:21:59.336Z,2.70
2019-04-01T02:24:29.563Z,2.07
2019-04-01T02:26:59.823Z,2.10
2019-04-01T02:29:29.777Z,2.62
2019-04-01T02:31:59.920Z,2.10
2019-04-01T02:35:18.789Z,2.67
2019-04-01T02:38:01.342Z,2.30
2019-04-01T02:40:35.803Z,2.12
2019-04-01T02:43:05.131Z,2.02
2019-04-01T02:45:34.511Z,3.35
2019-04-01T02:48:08.270Z,1.90
2019-04-01T02:50:37.569Z,2.85
2019-04-01T02:53:06.876Z,2.07
2019-04-01T02:55:36.177Z,2.20
2019-04-01T02:58:05.483Z,2.45
2019-04-01T03:00:34.883Z,2.22
2019-04-01T03:03:04.234Z,2.30
2019-04-01T03:05:33.566Z,2.40
2019-04-01T03:08:02.961Z,2.25
2019-04-01T03:10:32.254Z,1.95
2019-04-01T03:13:02.370Z,2.12
2019-04-01T03:15:32.590Z,2.87
2019-04-01T03:18:04.749Z,2.25
2019-04-01T03:20:34.327Z,2.47
2019-04-01T03:23:03.624Z,2.02
2019-04-01T03:25:33.297Z,2.64
2019-04-01T03:28:03.273Z,2.95
2019-04-01T03:30:33.513Z,2.10
2019-04-01T03:33:03.924Z,2.15
2019-04-01T03:35:35.402Z,2.22
2019-04-01T03:38:04.750Z,2.20
2019-04-01T03:40:34.070Z,2.67
2019-04-01T03:43:04.248Z,2.87
2019-04-01T03:45:34.473Z,2.20
2019-04-01T03:48:04.455Z,1.95
2019-04-01T03:50:34.668Z,2.50
2019-04-01T03:53:04.819Z,2.17
2019-04-01T03:55:34.966Z,2.00
2019-04-01T03:58:05.077Z,2.30
2019-04-01T04:00:35.308Z,1.95
2019-04-01T04:03:05.358Z,2.83
2019-04-01T04:05:35.631Z,2.60
2019-04-01T04:08:05.667Z,2.58
2019-04-01T04:10:35.942Z,2.35
2019-04-01T04:13:06.000Z,2.75
2019-04-01T04:15:36.095Z,2.52
2019-04-01T04:18:06.230Z,2.20
2019-04-01T04:20:36.467Z,2.52
2019-04-01T04:23:06.529Z,2.25
2019-04-01T04:25:36.769Z,2.40
2019-04-01T04:28:06.863Z,2.22
2019-04-01T04:30:37.231Z,2.02
2019-04-01T04:33:07.194Z,2.62
2019-04-01T04:35:37.408Z,2.65
2019-04-01T04:38:07.431Z,2.47
2019-04-01T04:40:40.685Z,2.58
2019-04-01T04:43:08.713Z,3.40
2019-04-01T04:45:38.021Z,2.58
2019-04-01T04:48:08.004Z,2.33
2019-04-01T04:50:38.218Z,2.95
2019-04-01T04:53:08.616Z,2.93
2019-04-01T04:55:38.575Z,2.35
2019-04-01T04:58:08.697Z,2.30
2019-04-01T05:00:38.877Z,2.80
2019-04-01T05:03:08.948Z,2.40
2019-04-01T05:05:39.164Z,2.83
2019-04-01T05:08:09.300Z,2.58
2019-04-01T05:10:39.415Z,2.62
2019-04-01T05:13:09.596Z,2.87
2019-04-01T05:15:39.818Z,4.05
2019-04-01T05:18:09.832Z,2.58
2019-04-01T05:20:40.416Z,2.83
2019-04-01T05:23:10.415Z,2.62
2019-04-01T05:25:40.658Z,2.60
2019-04-01T05:28:13.898Z,2.77
2019-04-01T05:30:44.919Z,2.83
2019-04-01T05:33:16.340Z,2.80
2019-04-01T05:35:45.651Z,2.92
2019-04-01T05:38:14.985Z,2.72
2019-04-01T05:40:44.541Z,3.00
2019-04-01T05:43:14.001Z,2.83
2019-04-01T05:45:43.353Z,2.58
2019-04-01T05:48:12.990Z,2.90
2019-04-01T05:50:42.359Z,2.98
2019-04-01T05:53:12.176Z,3.08
2019-04-01T05:55:42.273Z,2.84
2019-04-01T05:58:12.412Z,2.90
2019-04-01T06:00:43.495Z,3.20
2019-04-01T06:03:13.802Z,3.00
2019-04-01T06:05:43.558Z,2.77
2019-04-01T06:08:13.918Z,2.70
2019-04-01T06:10:45.236Z,3.30
2019-04-01T06:13:15.047Z,3.02
2019-04-01T06:15:44.360Z,2.42
2019-04-01T06:18:13.690Z,3.08
2019-04-01T06:20:43.820Z,2.75
2019-04-01T06:23:14.026Z,2.80
2019-04-01T06:25:44.196Z,3.33
2019-04-01T06:28:14.415Z,2.85
2019-04-01T06:30:44.553Z,2.40
2019-04-01T06:33:14.680Z,2.98
2019-04-01T06:35:44.933Z,2.85
2019-04-01T06:38:14.865Z,2.67
2019-04-01T06:40:45.099Z,2.80
2019-04-01T06:43:15.193Z,2.85
2019-04-01T06:45:45.501Z,2.02
2019-04-01T06:48:15.476Z,3.08
2019-04-01T06:50:45.719Z,3.12
2019-04-01T06:53:15.779Z,2.77
2019-04-01T06:55:46.038Z,3.27
2019-04-01T06:58:16.244Z,2.77
2019-04-01T07:00:46.417Z,2.77
2019-04-01T07:03:18.529Z,2.62
2019-04-01T07:05:47.897Z,2.98
2019-04-01T07:08:17.206Z,3.22
2019-04-01T07:10:47.026Z,2.98
2019-04-01T07:13:17.072Z,2.77
2019-04-01T07:15:47.342Z,2.92
2019-04-01T07:18:17.570Z,2.95
2019-04-01T07:20:47.629Z,2.70
2019-04-01T07:23:17.784Z,3.50
2019-04-01T07:25:47.911Z,3.15
2019-04-01T07:28:18.115Z,3.10
2019-04-01T07:30:48.357Z,3.42
2019-04-01T07:33:18.343Z,2.50
2019-04-01T07:35:48.647Z,3.25
2019-04-01T07:38:18.781Z,2.83
2019-04-01T07:40:49.108Z,3.30
2019-04-01T07:43:19.094Z,2.85
2019-04-01T07:45:49.827Z,3.17
2019-04-01T07:48:19.349Z,3.33
2019-04-01T07:50:49.664Z,2.72
2019-04-01T07:53:19.653Z,3.37
2019-04-01T07:55:49.981Z,3.27
2019-04-01T07:58:19.959Z,3.02
2019-04-01T08:00:50.222Z,3.50
2019-04-01T08:03:20.247Z,3.17
2019-04-01T08:05:50.578Z,3.12
2019-04-01T08:08:20.639Z,3.45
2019-04-01T08:10:50.789Z,3.25
2019-04-01T08:13:20.837Z,3.47
2019-04-01T08:15:51.153Z,3.40
2019-04-01T08:18:21.148Z,3.12
2019-04-01T08:20:51.300Z,3.20
2019-04-01T08:23:21.503Z,3.30
2019-04-01T08:25:51.744Z,3.90
2019-04-01T08:28:23.825Z,3.55
2019-04-01T08:30:52.743Z,3.40
2019-04-01T08:33:22.238Z,3.65
2019-04-01T08:35:52.176Z,2.98
2019-04-01T08:38:22.303Z,3.50
2019-04-01T08:40:52.595Z,3.50
2019-04-01T08:43:22.683Z,4.15
2019-04-01T08:45:52.738Z,3.87
2019-04-01T08:48:22.970Z,4.08
2019-04-01T08:50:53.066Z,4.25
2019-04-01T08:53:23.301Z,4.67
2019-04-01T08:56:00.540Z,4.33
2019-04-01T08:58:24.557Z,4.10
2019-04-01T09:00:53.888Z,4.03
2019-04-01T09:03:23.794Z,4.17
2019-04-01T09:05:54.094Z,4.20
2019-04-01T09:08:26.138Z,3.85
2019-04-01T09:10:55.438Z,4.55
2019-04-01T09:13:34.727Z,4.42
2019-04-01T09:16:04.851Z,4.75
2019-04-01T09:18:34.164Z,5.60
2019-04-01T09:21:03.575Z,4.53
2019-04-01T09:23:32.887Z,4.70
2019-04-01T09:26:02.257Z,4.50
2019-04-01T09:28:31.579Z,5.05
2019-04-01T09:31:00.918Z,5.03
2019-04-01T09:33:30.260Z,4.78
2019-04-01T09:35:59.594Z,5.33
2019-04-01T09:38:28.930Z,5.30
2019-04-01T09:40:58.253Z,5.40
2019-04-01T09:43:27.596Z,5.10
2019-04-01T09:45:56.933Z,4.67
2019-04-01T09:48:26.552Z,5.90
2019-04-01T09:50:56.857Z,5.72
2019-04-01T09:53:26.930Z,5.55
2019-04-01T09:55:57.157Z,5.45
2019-04-01T09:58:27.202Z,5.55
2019-04-01T10:00:57.476Z,5.45
2019-04-01T10:03:27.640Z,5.90
2019-04-01T10:05:57.727Z,6.00
2019-04-01T10:08:41.554Z,6.15
2019-04-01T10:10:58.984Z,6.30
2019-04-01T10:13:28.340Z,6.45
2019-04-01T10:15:58.337Z,5.78
2019-04-01T10:18:28.505Z,5.92
2019-04-01T10:20:58.768Z,6.53
2019-04-01T10:23:28.820Z,6.17
2019-04-01T10:25:59.057Z,7.05
2019-04-01T10:28:32.015Z,7.17
2019-04-01T10:31:00.173Z,6.33
2019-04-01T10:33:29.539Z,6.87
2019-04-01T10:35:59.627Z,6.70
2019-04-01T10:38:29.705Z,6.90
2019-04-01T10:40:59.824Z,6.58
2019-04-01T10:43:29.966Z,6.92
2019-04-01T10:46:00.203Z,7.08
2019-04-01T10:48:30.308Z,7.40
2019-04-01T10:51:00.599Z,8.10
2019-04-01T10:53:30.547Z,7.25
2019-04-01T10:56:00.752Z,7.55
2019-04-01T10:58:30.812Z,7.42
2019-04-01T11:01:01.058Z,7.50
2019-04-01T11:03:31.103Z,8.58
2019-04-01T11:06:01.399Z,8.88
2019-04-01T11:08:31.455Z,7.72
2019-04-01T11:11:01.727Z,7.30
2019-04-01T11:13:31.651Z,7.50
2019-04-01T11:16:02.055Z,8.18
2019-04-01T11:18:32.000Z,8.35
2019-04-01T11:21:02.224Z,7.45
2019-04-01T11:23:33.717Z,8.63
2019-04-01T11:26:03.170Z,7.72
2019-04-01T11:28:33.025Z,8.28
2019-04-01T11:31:03.329Z,8.48
2019-04-01T11:33:32.887Z,8.53
2019-04-01T11:36:03.268Z,8.18
2019-04-01T11:38:33.180Z,8.43
2019-04-01T11:41:03.437Z,8.00
2019-04-01T11:43:35.575Z,7.75
2019-04-01T11:46:04.552Z,7.95
2019-04-01T11:48:33.998Z,8.18
2019-04-01T11:51:04.055Z,8.15
2019-04-01T11:53:34.103Z,8.75
2019-04-01T11:56:04.330Z,8.60
2019-04-01T11:58:34.373Z,8.00
2019-04-01T12:01:04.680Z,8.58
2019-04-01T12:03:34.815Z,9.00
2019-04-01T12:06:05.051Z,8.58
2019-04-01T12:08:47.967Z,8.53
2019-04-01T12:11:24.497Z,8.48
2019-04-01T12:13:53.804Z,8.08
2019-04-01T12:16:23.144Z,7.80
2019-04-01T12:18:52.461Z,8.10
2019-04-01T12:21:21.931Z,8.75
2019-04-01T12:23:51.614Z,7.73
2019-04-01T12:26:23.683Z,8.38
2019-04-01T12:28:53.775Z,8.38
2019-04-01T12:31:23.093Z,8.18
2019-04-01T12:33:52.477Z,9.08
2019-04-01T12:36:23.332Z,8.40
2019-04-01T12:38:53.737Z,8.70
2019-04-01T12:41:23.289Z,8.60
2019-04-01T12:43:52.631Z,7.90
2019-04-01T12:46:21.944Z,8.80
2019-04-01T12:48:51.266Z,8.90
2019-04-01T12:51:21.868Z,8.70
2019-04-01T12:53:51.530Z,8.50
2019-04-01T12:56:20.853Z,8.78
2019-04-01T12:58:50.175Z,8.48
2019-04-01T13:01:20.451Z,9.18
2019-04-01T13:03:49.944Z,8.37
2019-04-01T13:06:22.331Z,8.57
2019-04-01T13:08:54.188Z,8.90
2019-04-01T13:11:23.497Z,9.03
2019-04-01T13:13:52.809Z,9.53
2019-04-01T13:16:22.125Z,8.23
2019-04-01T13:18:51.452Z,8.13
2019-04-01T13:21:21.876Z,8.20
2019-04-01T13:23:51.186Z,8.53
2019-04-01T13:26:20.515Z,8.95
2019-04-01T13:28:49.861Z,9.13
2019-04-01T13:31:19.205Z,9.35
2019-04-01T13:33:48.508Z,8.25
2019-04-01T13:36:17.826Z,8.63
2019-04-01T13:38:47.143Z,8.60
2019-04-01T13:41:16.440Z,8.83
2019-04-01T13:43:45.772Z,7.90
2019-04-01T13:46:15.053Z,8.73
2019-04-01T13:48:56.954Z,8.58
2019-04-01T13:51:15.407Z,8.30
2019-04-01T13:53:44.719Z,8.83
2019-04-01T13:56:15.086Z,8.67
2019-04-01T13:58:44.428Z,9.15
2019-04-01T14:01:13.835Z,9.33
2019-04-01T14:03:46.669Z,8.73
2019-04-01T14:06:15.999Z,8.45
2019-04-01T14:08:45.467Z,8.78
2019-04-01T14:11:14.770Z,8.73
2019-04-01T14:13:44.115Z,8.90
2019-04-01T14:16:13.592Z,9.83
2019-04-01T14:18:43.645Z,9.40
2019-04-01T14:21:16.557Z,8.33
2019-04-01T14:23:44.033Z,8.67
2019-04-01T14:26:14.347Z,8.15
2019-04-01T14:28:44.333Z,9.55
2019-04-01T14:31:14.569Z,9.30
2019-04-01T14:33:44.580Z,9.53
2019-04-01T14:36:14.853Z,9.20
2019-04-01T14:38:44.940Z,9.55
2019-04-01T14:41:15.059Z,8.90
2019-04-01T14:43:45.315Z,8.90
2019-04-01T14:46:15.462Z,9.43
2019-04-01T14:48:45.742Z,8.70
2019-04-01T14:51:15.749Z,9.68
2019-04-01T14:53:45.792Z,8.93
2019-04-01T14:56:16.023Z,9.35
2019-04-01T14:58:46.258Z,8.10
2019-04-01T15:01:16.371Z,9.10
2019-04-01T15:03:46.637Z,9.03
2019-04-01T15:06:17.126Z,9.45
2019-04-01T15:08:48.182Z,10.58
2019-04-01T15:11:17.602Z,8.85
2019-04-01T15:13:47.149Z,9.18
2019-04-01T15:16:17.392Z,9.15
2019-04-01T15:18:47.409Z,8.20
2019-04-01T15:21:17.637Z,8.93
2019-04-01T15:23:47.738Z,8.68
2019-04-01T15:26:17.976Z,8.03
2019-04-01T15:28:48.028Z,8.23
2019-04-01T15:31:18.279Z,8.43
2019-04-01T15:33:48.372Z,8.85
2019-04-01T15:36:18.621Z,8.65
2019-04-01T15:38:48.760Z,8.00
2019-04-01T15:41:18.884Z,9.00
2019-04-01T15:43:49.024Z,9.08
2019-04-01T15:46:19.400Z,9.10
2019-04-01T15:48:49.344Z,8.10
2019-04-01T15:51:19.591Z,8.48
2019-04-01T15:53:49.689Z,8.00
2019-04-01T15:56:19.779Z,8.40
2019-04-01T15:58:50.969Z,8.23
2019-04-01T16:01:20.431Z,7.90
2019-04-01T16:03:50.239Z,7.78
2019-04-01T16:06:20.533Z,7.95
2019-04-01T16:08:50.543Z,7.95
2019-04-01T16:11:20.887Z,7.75
2019-04-01T16:13:50.965Z,7.75
2019-04-01T16:16:21.018Z,7.97
2019-04-01T16:18:51.177Z,8.13
2019-04-01T16:21:21.604Z,7.65
2019-04-01T16:23:51.435Z,8.25
2019-04-01T16:26:21.910Z,7.30
2019-04-01T16:28:51.753Z,8.25
2019-04-01T16:31:21.914Z,7.60
2019-04-01T16:33:52.037Z,7.70
2019-04-01T16:36:22.288Z,8.30
2019-04-01T16:38:52.392Z,7.90
2019-04-01T16:41:22.491Z,7.70
2019-04-01T16:43:52.731Z,8.00
2019-04-01T16:46:22.876Z,6.87
2019-04-01T16:48:53.106Z,6.67
2019-04-01T16:51:23.169Z,7.83
2019-04-01T16:53:55.975Z,7.40
2019-04-01T16:56:24.298Z,8.03
2019-04-01T16:58:53.623Z,7.62
2019-04-01T17:01:23.848Z,8.43
2019-04-01T17:03:53.899Z,6.72
2019-04-01T17:06:24.268Z,7.65
2019-04-01T17:08:54.295Z,7.87
2019-04-01T17:11:24.696Z,7.12
2019-04-01T17:13:55.563Z,7.10
2019-04-01T17:16:25.024Z,7.70
2019-04-01T17:18:57.593Z,8.40
2019-04-01T17:21:25.944Z,8.18
2019-04-01T17:23:55.266Z,7.95
2019-04-01T17:26:25.300Z,6.62
2019-04-01T17:28:55.417Z,7.37
2019-04-01T17:31:25.641Z,6.80
2019-04-01T17:33:55.895Z,7.13
2019-04-01T17:36:25.996Z,7.92
2019-04-01T17:38:56.251Z,7.45
2019-04-01T17:41:26.425Z,7.72
2019-04-01T17:43:56.436Z,7.12
2019-04-01T17:46:26.741Z,6.95
2019-04-01T17:48:56.729Z,7.53
2019-04-01T17:51:27.031Z,7.37
2019-04-01T17:53:57.263Z,7.83
2019-04-01T17:56:28.283Z,7.12
2019-04-01T17:58:57.594Z,8.60
2019-04-01T18:01:27.572Z,7.80
2019-04-01T18:03:57.688Z,7.53
2019-04-01T18:06:27.952Z,7.70
2019-04-01T18:08:58.240Z,7.30
2019-04-01T18:11:28.150Z,7.37
2019-04-01T18:13:58.371Z,7.40
2019-04-01T18:16:31.182Z,7.18
2019-04-01T18:18:59.500Z,7.78
2019-04-01T18:21:28.812Z,7.87
2019-04-01T18:23:58.912Z,8.05
2019-04-01T18:26:29.011Z,7.53
2019-04-01T18:28:59.176Z,7.47
2019-04-01T18:31:29.433Z,7.90
2019-04-01T18:33:59.620Z,7.72
2019-04-01T18:36:29.679Z,6.97
2019-04-01T18:38:59.755Z,7.30
2019-04-01T18:41:30.070Z,6.97
2019-04-01T18:44:00.157Z,7.08
2019-04-01T18:46:30.316Z,7.15
2019-04-01T18:49:00.408Z,7.12
2019-04-01T18:51:30.695Z,8.07
2019-04-01T18:54:00.777Z,8.00
2019-04-01T18:56:31.023Z,6.72
2019-04-01T18:59:01.121Z,6.72
2019-04-01T19:01:31.365Z,7.10
2019-04-01T19:04:01.633Z,7.15
2019-04-01T19:06:31.607Z,7.40
2019-04-01T19:09:09.028Z,7.03
2019-04-01T19:11:37.885Z,7.53
2019-04-01T19:14:05.492Z,6.87
2019-04-01T19:16:34.892Z,7.37
2019-04-01T19:19:04.200Z,7.42
2019-04-01T19:21:33.523Z,7.28
2019-04-01T19:24:02.815Z,7.85
2019-04-01T19:26:32.897Z,7.40
2019-04-01T19:29:03.454Z,7.55
2019-04-01T19:31:33.137Z,7.60
2019-04-01T19:34:03.409Z,7.45
2019-04-01T19:36:33.516Z,7.83
2019-04-01T19:39:05.232Z,7.72
2019-04-01T19:41:35.147Z,7.50
2019-04-01T19:44:04.456Z,7.62
2019-04-01T19:46:34.061Z,8.93
2019-04-01T19:49:05.216Z,10.45
2019-04-01T19:51:36.150Z,8.63
2019-04-01T19:54:05.653Z,7.72
2019-04-01T19:56:35.016Z,7.40
2019-04-01T19:59:04.803Z,7.62
2019-04-01T20:01:35.065Z,7.60
2019-04-01T20:04:05.540Z,7.72
2019-04-01T20:06:35.370Z,7.78
2019-04-01T20:09:06.683Z,7.78
2019-04-01T20:11:36.081Z,7.57
2019-04-01T20:14:05.937Z,8.35
2019-04-01T20:16:35.950Z,7.30
2019-04-01T20:19:06.029Z,7.78
2019-04-01T20:21:36.288Z,7.12
2019-04-01T20:24:06.485Z,7.67
2019-04-01T20:26:36.559Z,7.30
2019-04-01T20:29:06.653Z,7.53
2019-04-01T20:31:37.224Z,7.22
2019-04-01T20:34:19.135Z,7.83
2019-04-01T20:36:39.193Z,7.42
2019-04-01T20:39:08.970Z,7.15
2019-04-01T20:41:38.286Z,7.67
2019-04-01T20:44:07.754Z,7.85
2019-04-01T20:46:39.094Z,7.22
2019-04-01T20:49:08.571Z,7.37
2019-04-01T20:51:38.501Z,7.36
2019-04-01T20:54:08.873Z,8.40
2019-04-01T20:56:38.768Z,6.64
2019-04-01T20:59:10.263Z,7.47
2019-04-01T21:01:39.821Z,7.47
2019-04-01T21:04:09.142Z,6.80
2019-04-01T21:06:39.203Z,7.33
2019-04-01T21:09:09.367Z,7.47
2019-04-01T21:11:40.507Z,7.87
2019-04-01T21:14:09.895Z,8.58
2019-04-01T21:16:39.857Z,9.00
2019-04-01T21:19:10.072Z,8.60
2019-04-01T21:21:40.173Z,9.03
2019-04-01T21:24:10.407Z,7.85
2019-04-01T21:26:40.913Z,8.82
2019-04-01T21:29:10.588Z,8.18
2019-04-01T21:31:40.701Z,8.23
2019-04-01T21:34:11.201Z,9.08
2019-04-01T21:36:40.673Z,7.92
2019-04-01T21:39:10.701Z,9.93
2019-04-01T21:41:40.760Z,9.70
2019-04-01T21:44:10.771Z,9.63
2019-04-01T21:46:40.813Z,9.75
2019-04-01T21:49:10.818Z,10.20
2019-04-01T21:51:40.936Z,9.75
2019-04-01T21:54:10.902Z,10.93
2019-04-01T21:56:42.252Z,10.30
2019-04-01T21:59:11.581Z,10.70
2019-04-01T22:01:41.181Z,10.93
2019-04-01T22:04:11.301Z,10.10
2019-04-01T22:06:41.468Z,7.60
2019-04-01T22:09:12.749Z,10.00
2019-04-01T22:11:43.317Z,10.75
2019-04-01T22:14:12.629Z,10.13
2019-04-01T22:16:41.946Z,9.43
2019-04-01T22:19:12.303Z,9.83
2019-04-01T22:21:42.115Z,8.25
2019-04-01T22:24:11.481Z,10.50
2019-04-01T22:26:41.464Z,10.80
2019-04-01T22:29:11.507Z,11.30
2019-04-01T22:31:41.585Z,9.95
2019-04-01T22:34:11.571Z,10.98
2019-04-01T22:36:41.626Z,9.48
2019-04-01T22:39:11.745Z,10.60
2019-04-01T22:41:41.842Z,11.55
2019-04-01T22:44:11.791Z,10.70
2019-04-01T22:46:41.813Z,10.15
2019-04-01T22:49:12.196Z,10.20
2019-04-01T22:51:41.872Z,10.75
2019-04-01T22:54:11.969Z,9.98
2019-04-01T22:56:41.926Z,10.82
2019-04-01T22:59:11.976Z,9.88
2019-04-01T23:01:42.057Z,10.72
2019-04-01T23:04:12.156Z,9.95
2019-04-01T23:06:42.140Z,10.50
2019-04-01T23:09:12.222Z,11.15
2019-04-01T23:11:42.179Z,9.83
2019-04-01T23:14:12.232Z,10.20
2019-04-01T23:16:42.403Z,9.60
2019-04-01T23:19:12.383Z,9.63
2019-04-01T23:21:42.418Z,10.32
2019-04-01T23:24:12.515Z,10.25
2019-04-01T23:26:42.516Z,9.70
2019-04-01T23:29:12.583Z,9.93
2019-04-01T23:31:42.654Z,10.65
2019-04-01T23:34:13.242Z,10.30
2019-04-01T23:36:43.487Z,9.43
2019-04-01T23:39:12.807Z,10.65
2019-04-01T23:41:55.590Z,10.38
2019-04-01T23:44:24.882Z,10.43
2019-04-01T23:46:54.213Z,9.70
2019-04-01T23:49:23.515Z,10.18
2019-04-01T23:51:52.858Z,10.55
2019-04-01T23:54:22.161Z,9.73
2019-04-01T23:56:51.496Z,10.32
2019-04-01T23:59:20.796Z,10.75
